Time;durP1;ratioP1;P1;durP2;ratioP2;P2;SDS_P1;SDS_P2;PMS_P1;PMS_P2;Temp;Humidity;BMP_temperature;BMP_pressure;BME280_temperature;BME280_humidity;BME280_pressure;Samples;Min_cycle;Max_cycle;Signal;HPM_P1;HPM_P2
2022/03/24 00:01:21;;;;;;;24.57;10.10;;;;;;;6.06;52.20;95342.53;5011238;28;20284;-60
2022/03/24 00:03:47;;;;;;;22.57;10.93;;;;;;;6.05;52.57;95336.66;5012616;28;20720;-60
2022/03/24 00:06:13;;;;;;;21.77;10.53;;;;;;;6.15;52.29;95345.34;4995060;28;20214;-61
2022/03/24 00:08:39;;;;;;;20.20;9.53;;;;;;;6.14;52.32;95341.16;5012477;28;20683;-60
2022/03/24 00:11:05;;;;;;;22.23;9.90;;;;;;;6.20;52.31;95342.56;5012082;28;20214;-61
2022/03/24 00:13:30;;;;;;;19.57;10.47;;;;;;;6.22;52.01;95313.78;5012258;28;20209;-61
2022/03/24 00:15:56;;;;;;;26.90;13.77;;;;;;;6.29;51.81;95319.31;5012504;28;20211;-60
2022/03/24 00:18:21;;;;;;;21.83;10.90;;;;;;;6.26;51.50;95334.63;5012287;28;20559;-64
2022/03/24 00:20:47;;;;;;;20.77;10.30;;;;;;;6.32;51.92;95330.03;4994640;28;20633;-62
2022/03/24 00:23:12;;;;;;;18.67;10.10;;;;;;;6.24;51.90;95327.13;5012029;28;20179;-65
2022/03/24 00:25:38;;;;;;;21.90;9.93;;;;;;;6.28;51.33;95323.53;5012379;28;20340;-65
2022/03/24 00:28:06;;;;;;;19.90;9.53;;;;;;;6.23;52.05;95317.13;5012008;28;20259;-65
2022/03/24 00:30:31;;;;;;;17.20;8.50;;;;;;;6.34;51.71;95314.81;5012207;28;20229;-60
2022/03/24 00:32:57;;;;;;;17.53;9.97;;;;;;;5.55;51.64;95195.69;5011988;28;20206;-63
2022/03/24 00:35:24;;;;;;;23.53;9.40;;;;;;;6.37;51.17;95305.34;5012198;28;20268;-65
2022/03/24 00:37:50;;;;;;;16.47;8.00;;;;;;;6.12;51.59;95289.97;4994211;28;20185;-64
2022/03/24 00:40:17;;;;;;;21.30;9.97;;;;;;;6.27;51.94;95300.91;5011727;28;20264;-64
2022/03/24 00:42:43;;;;;;;15.53;9.17;;;;;;;6.39;51.61;95306.06;5011746;28;20190;-63
2022/03/24 00:45:12;;;;;;;18.80;9.00;;;;;;;6.22;52.01;95308.72;5012015;28;20202;-64
2022/03/24 00:47:42;;;;;;;17.77;9.97;;;;;;;5.62;53.79;95282.69;5010511;28;20719;-66
2022/03/24 00:50:10;;;;;;;26.23;10.63;;;;;;;5.50;54.50;95272.47;5011589;28;20225;-61
2022/03/24 00:52:41;;;;;;;22.60;11.87;;;;;;;5.72;54.32;95277.94;5011624;28;20218;-61
2022/03/24 00:55:18;;;;;;;22.53;11.13;;;;;;;5.64;55.13;95270.81;5011766;28;20209;-60
2022/03/24 00:57:49;;;;;;;19.30;11.27;;;;;;;5.63;54.64;95270.91;4993935;28;20186;-60
2022/03/24 01:00:16;;;;;;;23.70;10.23;;;;;;;5.66;55.52;95268.19;4994014;28;20770;-60
2022/03/24 01:02:49;;;;;;;16.27;8.93;;;;;;;5.96;53.78;95271.56;5012642;28;20562;-64
2022/03/24 01:05:16;;;;;;;16.37;7.90;;;;;;;5.51;54.11;95269.06;5016176;28;20231;-64
2022/03/24 01:07:43;;;;;;;14.70;7.87;;;;;;;5.14;55.57;95250.09;5015533;28;20189;-64
2022/03/24 01:10:10;;;;;;;22.13;7.73;;;;;;;5.05;55.29;95206.03;5015579;28;20213;-60
2022/03/24 01:12:36;;;;;;;13.90;6.80;;;;;;;5.26;55.48;95254.47;5015596;28;20613;-60
2022/03/24 01:15:04;;;;;;;11.43;6.10;;;;;;;5.34;56.02;95252.34;5015658;28;20210;-61
2022/03/24 01:17:31;;;;;;;10.53;6.23;;;;;;;5.14;56.48;95245.06;5015383;28;20187;-65
2022/03/24 01:19:57;;;;;;;13.87;6.13;;;;;;;4.69;58.47;95228.16;4997820;28;20202;-65
2022/03/24 01:22:22;;;;;;;10.83;5.57;;;;;;;5.06;56.90;95247.19;5015478;28;20178;-64
2022/03/24 01:24:48;;;;;;;11.30;6.33;;;;;;;4.92;57.05;95235.31;5015498;28;20217;-64
2022/03/24 01:27:15;;;;;;;13.33;6.33;;;;;;;4.75;58.49;95237.09;5015151;28;20189;-65
2022/03/24 01:29:41;;;;;;;12.97;5.33;;;;;;;4.79;58.55;95231.00;5015266;28;20592;-66
2022/03/24 01:32:08;;;;;;;10.30;5.57;;;;;;;4.48;60.66;95221.75;5015268;28;20197;-62
2022/03/24 01:34:35;;;;;;;8.53;5.10;;;;;;;4.63;58.45;95233.53;5015317;28;20212;-62
2022/03/24 01:37:01;;;;;;;12.37;5.03;;;;;;;4.16;59.29;95172.28;5017055;28;20179;-64
2022/03/24 01:39:27;;;;;;;11.13;5.00;;;;;;;4.04;60.98;95213.16;5015509;28;20207;-64
2022/03/24 01:41:53;;;;;;;9.70;4.67;;;;;;;3.89;62.58;95213.91;5015193;28;20180;-67
2022/03/24 01:44:21;;;;;;;9.10;4.57;;;;;;;4.03;61.69;95201.44;5015235;28;20186;-65
2022/03/24 01:47:02;;;;;;;9.93;4.87;;;;;;;3.72;62.49;95214.72;4997263;28;20191;-61
2022/03/24 01:49:31;;;;;;;9.10;4.80;;;;;;;3.66;62.72;95209.19;5014791;28;20708;-64
2022/03/24 01:51:58;;;;;;;9.97;5.20;;;;;;;3.35;64.12;95193.09;5014718;28;20216;-60
2022/03/24 01:54:25;;;;;;;10.07;5.60;;;;;;;3.42;64.27;95189.41;4996996;28;20294;-62
2022/03/24 01:56:52;;;;;;;12.30;5.23;;;;;;;3.31;64.41;95201.66;5014773;28;20645;-65
2022/03/24 01:59:19;;;;;;;10.70;5.77;;;;;;;3.53;63.92;95190.56;5014661;28;20172;-60
2022/03/24 02:01:45;;;;;;;12.37;6.37;;;;;;;3.31;64.69;95185.78;5015014;28;20295;-63
2022/03/24 02:04:11;;;;;;;15.10;6.13;;;;;;;3.45;64.70;95208.53;5014586;28;20171;-60
2022/03/24 02:06:37;;;;;;;13.30;6.37;;;;;;;3.67;63.85;95213.34;5014460;28;20175;-61
2022/03/24 02:09:04;;;;;;;12.50;6.10;;;;;;;3.60;64.58;95215.31;5014384;28;20186;-66
2022/03/24 02:11:34;;;;;;;11.37;5.97;;;;;;;3.48;64.65;95198.34;5014416;28;20186;-62
2022/03/24 02:14:00;;;;;;;10.50;5.80;;;;;;;3.57;64.73;95207.13;5013718;28;20179;-60
2022/03/24 02:16:35;;;;;;;10.73;5.30;;;;;;;3.52;63.92;95206.53;4996521;28;20285;-65
2022/03/24 02:19:21;;;;;;;12.50;5.33;;;;;;;3.65;64.21;95212.59;4996750;28;20174;-62
2022/03/24 02:21:49;;;;;;;8.43;4.70;;;;;;;3.68;63.93;95209.91;5013962;28;20183;-61
2022/03/24 02:24:17;;;;;;;10.13;5.03;;;;;;;3.74;63.91;95210.44;4996366;28;20189;-60
2022/03/24 02:26:44;;;;;;;10.63;4.80;;;;;;;3.96;63.69;95216.03;5057918;23;20222;-62
2022/03/24 02:29:11;;;;;;;8.63;4.90;;;;;;;3.95;63.77;95216.09;5053663;28;20562;-64
2022/03/24 02:31:39;;;;;;;8.47;4.77;;;;;;;4.03;63.18;95219.88;5037293;23;20310;-64
2022/03/24 02:36:52;;;;;;;14.87;6.60;;;;;;;3.37;65.88;95205.59;5013946;28;20174;-65
2022/03/24 02:39:17;;;;;;;15.00;7.70;;;;;;;3.44;65.76;95204.41;5014097;28;20571;-62
2022/03/24 02:41:58;;;;;;;15.30;7.83;;;;;;;3.70;64.22;95203.13;5012617;28;20183;-62
2022/03/24 02:44:26;;;;;;;14.33;6.97;;;;;;;3.84;64.19;95205.75;5013861;28;20200;-61
2022/03/24 02:46:54;;;;;;;17.83;8.20;;;;;;;3.97;63.76;95212.63;5013732;28;20213;-65
2022/03/24 02:49:24;;;;;;;14.07;7.80;;;;;;;3.88;65.09;95208.06;5013776;28;20172;-60
2022/03/24 02:51:51;;;;;;;18.40;9.50;;;;;;;3.73;65.91;95202.97;5013661;28;20193;-65
2022/03/24 02:54:18;;;;;;;15.97;8.83;;;;;;;4.00;64.16;95207.44;5013674;28;20567;-64
2022/03/24 02:56:44;;;;;;;13.93;7.50;;;;;;;4.04;64.18;95211.41;5012312;28;20189;-65
2022/03/24 02:59:10;;;;;;;17.10;7.57;;;;;;;4.11;63.27;95214.44;5013805;28;20192;-64
2022/03/24 03:01:42;;;;;;;15.67;8.07;;;;;;;4.03;64.02;95204.78;5013688;28;20238;-61
2022/03/24 03:04:08;;;;;;;10.73;6.80;;;;;;;4.03;64.74;95202.25;5013236;28;20175;-61
2022/03/24 03:06:34;;;;;;;14.80;6.07;;;;;;;3.98;63.86;95203.41;5012101;28;20278;-62
2022/03/24 03:09:01;;;;;;;13.20;6.90;;;;;;;4.09;64.06;95212.03;5013700;28;20250;-62
2022/03/24 03:11:27;;;;;;;14.53;5.90;;;;;;;4.09;63.42;95198.63;5013714;28;20187;-65
2022/03/24 03:13:53;;;;;;;9.10;5.50;;;;;;;4.09;63.89;95201.13;5013218;28;20289;-65
2022/03/24 03:16:19;;;;;;;10.53;5.53;;;;;;;4.01;63.67;95206.56;5013681;28;20575;-64
2022/03/24 03:18:44;;;;;;;11.47;5.40;;;;;;;3.89;65.08;95201.34;5037108;23;20226;-61
2022/03/24 03:21:11;;;;;;;9.03;4.53;;;;;;;3.88;64.75;95209.78;5032872;28;20194;-65
2022/03/24 03:23:38;;;;;;;9.60;4.63;;;;;;;3.95;63.87;95199.31;5032854;28;20185;-62
2022/03/24 03:26:06;;;;;;;10.07;5.17;;;;;;;4.20;63.70;95214.00;5032842;28;20680;-62
2022/03/24 03:28:33;;;;;;;10.20;5.00;;;;;;;4.02;64.79;95209.91;5032825;28;20183;-65
2022/03/24 03:30:58;;;;;;;7.67;4.20;;;;;;;4.10;64.05;95211.09;5032659;28;20740;-65
2022/03/24 03:33:24;;;;;;;12.97;5.20;;;;;;;4.10;64.19;95210.31;5015183;28;20202;-62
2022/03/24 03:35:50;;;;;;;6.67;4.40;;;;;;;3.99;65.21;95203.31;5032556;28;20198;-62
2022/03/24 03:38:15;;;;;;;10.07;5.30;;;;;;;3.96;64.69;95211.00;5033109;28;20181;-63
2022/03/24 03:40:41;;;;;;;9.97;4.50;;;;;;;3.94;64.73;95206.94;5038891;23;20248;-64
2022/03/24 03:43:07;;;;;;;10.80;5.10;;;;;;;4.03;64.22;95211.50;5032728;28;20225;-61
2022/03/24 03:45:32;;;;;;;13.17;5.37;;;;;;;4.30;63.80;95224.41;5032884;28;20216;-60
2022/03/24 03:47:58;;;;;;;9.77;4.70;;;;;;;4.12;63.44;95206.81;5032488;28;20317;-62
2022/03/24 03:50:25;;;;;;;11.33;4.90;;;;;;;4.11;64.33;95211.94;5032719;28;20253;-61
2022/03/24 03:52:51;;;;;;;8.17;5.67;;;;;;;3.94;65.35;95197.69;5032207;28;20202;-62
2022/03/24 03:55:17;;;;;;;8.77;5.03;;;;;;;4.17;64.17;95209.94;5032482;28;20252;-64
2022/03/24 03:57:43;;;;;;;10.93;5.07;;;;;;;4.21;64.64;95220.63;5015216;28;20185;-61
2022/03/24 04:02:53;;;;;;;7.43;4.60;;;;;;;4.27;64.22;95202.72;5032196;28;20174;-61
2022/03/24 04:05:25;;;;;;;9.90;4.80;;;;;;;4.32;64.86;95210.84;5014220;28;20302;-63
2022/03/24 04:07:53;;;;;;;8.63;5.20;;;;;;;4.38;63.50;95215.56;5014442;28;20291;-61
2022/03/24 04:10:20;;;;;;;10.67;5.20;;;;;;;4.25;64.19;95204.50;5031931;28;20595;-61
2022/03/24 04:12:46;;;;;;;11.07;6.27;;;;;;;4.25;64.07;95204.50;5031839;28;20263;-61
2022/03/24 04:15:11;;;;;;;13.00;5.83;;;;;;;4.05;64.85;95202.19;5032038;28;20225;-62
2022/03/24 04:17:37;;;;;;;14.93;7.10;;;;;;;4.05;65.18;95202.19;5031943;28;20251;-61
2022/03/24 04:20:03;;;;;;;11.37;5.87;;;;;;;4.05;64.76;95209.72;5032279;28;20635;-61
2022/03/24 04:22:30;;;;;;;10.63;5.43;;;;;;;3.87;65.60;95201.41;5014062;28;20253;-61
2022/03/24 04:24:56;;;;;;;12.87;5.30;;;;;;;3.95;64.93;95204.34;5031778;28;20198;-65
2022/03/24 04:27:21;;;;;;;12.23;4.90;;;;;;;3.91;65.00;95199.53;5031783;28;20236;-61
2022/03/24 04:29:47;;;;;;;14.57;6.60;;;;;;;4.14;64.24;95211.78;5032035;28;20241;-64
2022/03/24 04:32:13;;;;;;;12.67;5.77;;;;;;;3.89;65.26;95203.84;5031639;28;20687;-64
2022/03/24 04:34:38;;;;;;;14.13;5.83;;;;;;;3.90;65.19;95190.41;5031525;28;20583;-59
2022/03/24 04:37:04;;;;;;;9.23;5.07;;;;;;;4.02;65.46;95195.59;4997096;28;20189;-60
2022/03/24 04:39:29;;;;;;;8.90;5.13;;;;;;;4.11;64.84;95204.38;5031686;28;20202;-64
2022/03/24 04:41:56;;;;;;;8.87;5.20;;;;;;;3.99;65.32;95199.97;5031873;28;20211;-64
2022/03/24 04:44:24;;;;;;;14.67;5.43;;;;;;;4.02;65.58;95199.84;5031588;28;20287;-61
2022/03/24 04:46:50;;;;;;;19.20;8.40;;;;;;;4.24;65.01;95213.75;5031444;28;20639;-62
2022/03/24 04:49:15;;;;;;;16.67;7.03;;;;;;;3.91;66.01;95192.81;5031449;28;20174;-65
2022/03/24 04:51:41;;;;;;;17.30;7.17;;;;;;;3.92;65.21;95208.75;5031480;28;20189;-61
2022/03/24 04:54:07;;;;;;;15.37;6.07;;;;;;;3.83;66.40;95206.66;5031735;28;20178;-64
2022/03/24 04:56:32;;;;;;;13.90;5.83;;;;;;;3.90;65.64;95226.38;5014154;28;20187;-63
2022/03/24 04:58:58;;;;;;;13.70;7.03;;;;;;;3.85;64.54;95219.97;5031518;28;20177;-63
2022/03/24 05:01:23;;;;;;;11.37;5.50;;;;;;;3.60;66.63;95212.00;5031809;28;20207;-64
2022/03/24 05:03:49;;;;;;;9.90;5.73;;;;;;;3.50;66.49;95190.72;5031456;28;20175;-60
2022/03/24 05:06:15;;;;;;;14.90;5.43;;;;;;;3.89;65.42;95223.97;5031722;28;20646;-64
2022/03/24 05:08:40;;;;;;;14.10;6.13;;;;;;;3.58;66.56;95211.25;5031457;28;20191;-61
2022/03/24 05:11:05;;;;;;;12.43;5.30;;;;;;;3.66;65.52;95171.47;5031753;28;20310;-65
2022/03/24 05:13:31;;;;;;;11.43;5.80;;;;;;;3.94;65.94;95210.25;5031315;28;20202;-65
2022/03/24 05:15:56;;;;;;;8.60;5.00;;;;;;;4.02;64.89;95214.94;5031681;28;20281;-64
2022/03/24 05:18:24;;;;;;;10.37;5.53;;;;;;;3.95;65.11;95219.44;5031249;28;20190;-64
2022/03/24 05:20:50;;;;;;;17.60;5.30;;;;;;;4.07;63.62;95220.53;5013995;28;20208;-60
2022/03/24 05:23:15;;;;;;;12.30;5.77;;;;;;;4.01;64.42;95221.66;5031387;28;20293;-61
2022/03/24 05:25:41;;;;;;;13.03;6.97;;;;;;;4.01;65.04;95226.69;5031608;28;20283;-60
2022/03/24 05:28:07;;;;;;;16.53;6.83;;;;;;;4.05;65.00;95222.31;5031425;28;20213;-61
2022/03/24 05:30:33;;;;;;;24.00;9.00;;;;;;;4.13;65.34;95218.53;5031123;28;20253;-60
2022/03/24 05:32:58;;;;;;;24.90;9.07;;;;;;;4.33;64.44;95235.09;5013504;28;20203;-62
2022/03/24 05:35:24;;;;;;;26.73;9.60;;;;;;;4.20;64.53;95229.09;5031334;28;20198;-62
2022/03/24 05:37:50;;;;;;;26.13;10.90;;;;;;;3.91;65.38;95212.94;5031182;28;20183;-62
2022/03/24 05:40:15;;;;;;;22.60;10.27;;;;;;;4.12;65.29;95211.84;5031336;28;20698;-62
2022/03/24 05:42:41;;;;;;;27.53;10.40;;;;;;;4.33;64.25;95235.09;5030955;28;20644;-64
2022/03/24 05:45:07;;;;;;;20.20;9.80;;;;;;;4.41;64.54;95225.47;5031438;28;20206;-65
2022/03/24 05:47:32;;;;;;;19.90;8.80;;;;;;;4.35;65.00;95223.25;5030882;28;20186;-66
2022/03/24 05:49:58;;;;;;;17.60;8.57;;;;;;;4.38;64.39;95218.09;5032706;28;20203;-65
2022/03/24 05:52:24;;;;;;;20.10;8.87;;;;;;;4.64;63.36;95229.31;5034650;28;20206;-60
2022/03/24 05:54:49;;;;;;;20.13;8.90;;;;;;;4.58;63.92;95224.59;5034599;28;20587;-64
2022/03/24 05:57:15;;;;;;;17.37;9.47;;;;;;;4.73;63.32;95232.16;5016747;28;20191;-59
2022/03/24 05:59:41;;;;;;;14.27;8.70;;;;;;;4.87;63.40;95239.78;5034034;28;20211;-60
2022/03/24 06:02:06;;;;;;;13.33;6.67;;;;;;;4.93;62.24;95243.66;5034494;28;20188;-60
2022/03/24 06:04:32;;;;;;;15.17;8.00;;;;;;;5.04;62.38;95236.38;5034448;28;20214;-62
2022/03/24 06:06:58;;;;;;;14.03;8.17;;;;;;;4.97;63.48;95222.47;5016958;28;20610;-64
2022/03/24 06:09:24;;;;;;;16.67;9.70;;;;;;;5.14;62.37;95237.50;5016578;28;20778;-63
2022/03/24 06:11:54;;;;;;;14.17;8.30;;;;;;;5.11;62.92;95240.97;5016675;28;20182;-62
2022/03/24 06:14:20;;;;;;;21.97;10.37;;;;;;;5.03;63.12;95234.72;5034460;28;20180;-60
2022/03/24 06:16:46;;;;;;;21.07;10.30;;;;;;;5.32;62.81;95238.19;5034582;28;20703;-60
2022/03/24 06:19:12;;;;;;;22.00;11.07;;;;;;;5.39;62.78;95242.84;5034281;28;20706;-59
2022/03/24 06:21:38;;;;;;;32.70;14.00;;;;;;;5.39;62.55;95244.53;5034134;28;20205;-59
2022/03/24 06:24:05;;;;;;;32.07;13.80;;;;;;;5.60;61.29;95253.41;5016779;28;20615;-64
2022/03/24 06:26:31;;;;;;;34.27;15.40;;;;;;;5.74;60.25;95256.78;5034070;28;20275;-62
2022/03/24 06:28:56;;;;;;;31.33;14.30;;;;;;;5.52;60.77;95246.28;5034449;28;20256;-60
2022/03/24 06:31:23;;;;;;;27.93;14.37;;;;;;;5.69;60.23;95242.81;5033974;28;20217;-64
2022/03/24 06:33:48;;;;;;;28.33;13.80;;;;;;;5.85;59.94;95252.00;5034115;28;20202;-64
2022/03/24 06:36:15;;;;;;;33.03;14.10;;;;;;;5.92;59.30;95260.81;5034112;28;20717;-60
2022/03/24 06:38:41;;;;;;;22.97;13.33;;;;;;;5.78;61.04;95224.63;5033886;28;20185;-65
2022/03/24 06:41:07;;;;;;;29.93;13.13;;;;;;;5.97;59.68;95258.06;5035792;28;20244;-64
2022/03/24 06:43:34;;;;;;;25.83;13.03;;;;;;;5.93;58.60;95256.59;5033767;28;20213;-64
2022/03/24 06:46:00;;;;;;;31.60;13.60;;;;;;;6.19;58.96;95257.63;5015984;28;20205;-65
2022/03/24 06:48:25;;;;;;;27.20;14.07;;;;;;;6.13;58.31;95253.75;5034100;28;20185;-63
2022/03/24 06:50:51;;;;;;;30.63;13.20;;;;;;;6.36;58.17;95260.78;5033848;28;20208;-60
2022/03/24 06:53:17;;;;;;;29.83;14.13;;;;;;;6.28;57.85;95250.31;5034266;28;20576;-65
2022/03/24 06:55:43;;;;;;;31.17;13.93;;;;;;;6.45;58.07;95255.19;5015760;28;20722;-62
2022/03/24 06:58:08;;;;;;;29.70;14.80;;;;;;;6.37;58.09;95254.84;5033469;28;20260;-65
2022/03/24 07:00:34;;;;;;;29.43;14.87;;;;;;;6.69;58.77;95250.41;5033023;28;20204;-65
2022/03/24 07:03:01;;;;;;;28.27;15.67;;;;;;;6.91;56.15;95277.72;5015874;28;20183;-61
2022/03/24 07:05:27;;;;;;;33.03;14.90;;;;;;;6.74;55.24;95279.56;5033354;28;20288;-60
2022/03/24 07:08:02;;;;;;;34.27;14.93;;;;;;;6.76;54.54;95271.88;5033828;28;20675;-65
2022/03/24 07:10:27;;;;;;;27.90;14.10;;;;;;;6.74;54.31;95281.25;5015761;28;20304;-65
2022/03/24 07:12:53;;;;;;;31.00;14.10;;;;;;;7.00;54.62;95288.09;5033916;28;20654;-65
2022/03/24 07:15:18;;;;;;;27.50;14.87;;;;;;;7.44;53.48;95283.63;5015459;28;20215;-64
2022/03/24 07:17:44;;;;;;;33.87;14.90;;;;;;;7.39;53.25;95279.78;5033559;28;20192;-60
2022/03/24 07:20:09;;;;;;;32.27;15.67;;;;;;;7.55;52.69;95286.28;5033434;28;20210;-64
2022/03/24 07:22:36;;;;;;;32.27;13.43;;;;;;;7.97;52.33;95282.78;5033108;28;20196;-60
2022/03/24 07:25:03;;;;;;;30.20;13.63;;;;;;;8.14;51.46;95299.41;5033020;28;20198;-61
2022/03/24 07:27:29;;;;;;;27.03;13.47;;;;;;;8.22;51.52;95297.19;5032919;28;20623;-61
2022/03/24 07:29:54;;;;;;;29.67;14.90;;;;;;;8.18;51.37;95301.63;5033375;28;20317;-62
2022/03/24 07:32:20;;;;;;;28.73;13.03;;;;;;;8.21;50.99;95291.31;5015277;28;20285;-62
2022/03/24 07:34:46;;;;;;;29.77;13.87;;;;;;;8.09;51.97;95274.38;5032853;28;20202;-64
2022/03/24 07:37:12;;;;;;;42.50;15.50;;;;;;;8.06;50.22;95287.22;5033242;28;20240;-65
2022/03/24 07:39:38;;;;;;;25.63;13.63;;;;;;;8.29;51.72;95288.31;5032878;28;20260;-64
2022/03/24 07:42:04;;;;;;;33.47;13.87;;;;;;;8.25;50.81;95275.03;5015052;28;20222;-62
2022/03/24 07:44:30;;;;;;;27.87;14.00;;;;;;;8.39;50.96;95282.53;5032738;28;20202;-59
2022/03/24 07:46:55;;;;;;;31.60;15.33;;;;;;;8.77;49.27;95286.75;5015102;28;20605;-64
2022/03/24 07:49:21;;;;;;;31.60;14.73;;;;;;;8.93;49.39;95305.09;5015033;28;20221;-63
2022/03/24 07:51:47;;;;;;;31.90;14.57;;;;;;;8.27;48.73;95295.19;5032892;28;20233;-64
2022/03/24 07:54:13;;;;;;;21.70;13.03;;;;;;;8.75;47.39;95312.22;5032725;28;20186;-61
2022/03/24 07:56:39;;;;;;;27.00;14.97;;;;;;;9.05;47.46;95301.75;5032645;28;20191;-61
2022/03/24 07:59:06;;;;;;;32.83;14.23;;;;;;;8.90;47.75;95290.91;5032525;28;20174;-66
2022/03/24 08:01:33;;;;;;;24.67;13.47;;;;;;;9.06;47.74;95295.75;5032514;28;20201;-65
2022/03/24 08:04:01;;;;;;;30.77;14.67;;;;;;;9.39;46.64;95303.56;5032299;28;20217;-64
2022/03/24 08:06:28;;;;;;;28.53;14.47;;;;;;;9.15;48.69;95272.31;4998249;28;20206;-61
2022/03/24 08:08:54;;;;;;;29.03;13.90;;;;;;;9.26;49.30;95260.47;5014319;28;20190;-59
2022/03/24 08:11:21;;;;;;;28.73;12.97;;;;;;;9.69;49.38;95275.22;5031925;28;20198;-64
2022/03/24 08:13:47;;;;;;;31.33;14.20;;;;;;;9.92;49.38;95272.63;5031478;28;20209;-63
2022/03/24 08:16:14;;;;;;;32.23;15.33;;;;;;;9.85;46.96;95293.50;5032050;28;20687;-62
2022/03/24 08:18:40;;;;;;;29.07;14.17;;;;;;;10.17;46.78;95296.28;5014112;28;20264;-61
2022/03/24 08:21:06;;;;;;;30.63;14.43;;;;;;;10.21;47.38;95282.44;5014214;28;20230;-62
2022/03/24 08:23:31;;;;;;;25.13;14.17;;;;;;;10.50;46.31;95293.84;5031865;28;20189;-65
2022/03/24 08:25:56;;;;;;;28.83;14.33;;;;;;;10.57;46.36;95259.38;5049412;23;20231;-62
2022/03/24 08:28:22;;;;;;;23.03;13.43;;;;;;;10.92;44.68;95308.41;5051662;28;20177;-62
2022/03/24 08:30:47;;;;;;;27.37;13.83;;;;;;;11.19;44.41;95293.59;5052016;28;20209;-62
2022/03/24 08:33:13;;;;;;;24.10;12.67;;;;;;;11.47;43.05;95308.34;5051748;28;20216;-60
2022/03/24 08:35:46;;;;;;;22.80;12.87;;;;;;;11.61;42.87;95289.47;5051583;28;20721;-59
2022/03/24 08:38:12;;;;;;;25.90;13.20;;;;;;;11.60;42.60;95288.66;5050390;28;20178;-60
2022/03/24 08:40:38;;;;;;;21.73;13.10;;;;;;;11.88;41.87;95294.16;5050537;28;20623;-64
2022/03/24 08:43:04;;;;;;;23.90;13.20;;;;;;;12.28;41.04;95297.66;5051690;28;20236;-59
2022/03/24 08:45:30;;;;;;;22.03;11.47;;;;;;;12.51;39.55;95311.88;5051740;28;20206;-64
2022/03/24 08:47:56;;;;;;;21.27;11.97;;;;;;;12.87;39.41;95298.66;5050522;28;20186;-64
2022/03/24 08:50:23;;;;;;;23.23;11.67;;;;;;;13.30;37.64;95295.88;5051589;28;20220;-64
2022/03/24 08:52:48;;;;;;;19.43;10.60;;;;;;;13.58;37.31;95295.13;5051818;28;20266;-61
2022/03/24 08:55:14;;;;;;;18.50;10.57;;;;;;;13.87;37.40;95274.72;5051636;28;20209;-63
2022/03/24 08:57:42;;;;;;;25.00;9.50;;;;;;;13.85;37.13;95268.94;5050026;28;20529;-61
2022/03/24 09:00:13;;;;;;;22.80;11.30;;;;;;;13.93;36.89;95253.72;5051255;28;20751;-64
2022/03/24 09:02:40;;;;;;;18.45;9.40;;;;;;;14.43;35.33;95277.38;5051488;28;20631;-64
2022/03/24 09:05:06;;;;;;;18.13;9.00;;;;;;;14.63;35.39;95236.25;5051197;28;20266;-59
2022/03/24 09:07:32;;;;;;;21.03;8.00;;;;;;;15.03;34.60;95249.56;5051707;28;20182;-64
2022/03/24 09:09:57;;;;;;;16.92;9.07;;;;;;;15.43;35.20;95235.63;5051258;28;20225;-64
2022/03/24 09:12:24;;;;;;;13.77;8.27;;;;;;;15.62;34.28;95232.94;5050257;28;20212;-59
2022/03/24 09:14:50;;;;;;;18.27;8.32;;;;;;;15.11;34.14;95213.00;5050048;28;20553;-61
2022/03/24 09:17:15;;;;;;;15.95;7.90;;;;;;;15.10;33.04;95212.22;5051312;28;20720;-63
2022/03/24 09:19:41;;;;;;;9.45;7.10;;;;;;;14.85;33.43;95217.97;5051556;28;20208;-60
2022/03/24 09:22:06;;;;;;;10.63;7.07;;;;;;;15.08;33.80;95198.75;5051308;28;20200;-60
2022/03/24 09:24:33;;;;;;;15.77;6.38;;;;;;;15.93;34.31;95195.72;5053597;28;20220;-64
2022/03/24 09:26:59;;;;;;;16.05;7.82;;;;;;;16.50;33.71;95187.44;5054833;28;20186;-64
2022/03/24 09:29:25;;;;;;;11.27;6.55;;;;;;;15.98;31.67;95208.09;5055278;28;20217;-61
2022/03/24 09:31:50;;;;;;;11.35;6.47;;;;;;;15.72;31.74;95195.22;5054998;28;20304;-62
2022/03/24 09:34:16;;;;;;;12.10;7.13;;;;;;;15.87;31.65;95188.63;5054806;28;20204;-62
2022/03/24 09:36:42;;;;;;;19.58;7.00;;;;;;;15.71;31.38;95180.78;5054990;28;20261;-64
2022/03/24 09:39:09;;;;;;;12.70;6.57;;;;;;;16.71;31.29;95174.22;5054917;28;20663;-60
2022/03/24 09:41:36;;;;;;;10.82;6.82;;;;;;;17.24;31.54;95167.03;5043366;23;20317;-62
2022/03/24 09:44:03;;;;;;;9.95;6.85;;;;;;;17.39;30.39;95159.50;5034607;28;20170;-64
2022/03/24 09:46:29;;;;;;;12.73;6.90;;;;;;;18.08;29.46;95159.84;5002825;23;20329;-64
2022/03/24 09:49:14;;;;;;;16.73;6.97;;;;;;;16.93;28.11;95152.34;4995485;28;20172;-63
2022/03/24 09:51:40;;;;;;;14.52;5.72;;;;;;;16.85;27.45;95139.47;4975998;28;20188;-64
2022/03/24 09:54:11;;;;;;;9.65;6.05;;;;;;;16.96;27.64;95134.03;4976100;28;20259;-59
2022/03/24 09:56:37;;;;;;;9.27;5.80;;;;;;;16.97;26.74;95131.28;4975808;28;20227;-65
2022/03/24 09:59:03;;;;;;;12.32;6.10;;;;;;;17.32;26.98;95130.25;4975535;28;20654;-63
2022/03/24 10:01:29;;;;;;;10.23;6.10;;;;;;;17.83;26.86;95106.00;4975860;28;20200;-65
2022/03/24 10:04:05;;;;;;;9.32;5.85;;;;;;;18.02;26.44;95119.31;4975888;28;20185;-64
2022/03/24 10:06:31;;;;;;;12.35;5.85;;;;;;;18.55;26.92;95099.88;4975561;28;20184;-62
2022/03/24 10:08:57;;;;;;;10.32;5.40;;;;;;;18.15;26.02;95104.19;4958207;28;20543;-64
2022/03/24 10:11:26;;;;;;;9.60;5.78;;;;;;;18.27;24.87;95082.28;4975859;28;20258;-59
2022/03/24 10:13:59;;;;;;;17.35;5.28;;;;;;;18.57;24.67;95092.81;4975312;28;20287;-59
2022/03/24 10:16:34;;;;;;;10.68;6.22;;;;;;;18.53;24.00;95081.22;4975848;28;20200;-59
2022/03/24 10:19:13;;;;;;;8.68;4.97;;;;;;;19.22;24.28;95076.00;4975274;28;20260;-62
2022/03/24 10:21:47;;;;;;;8.48;5.15;;;;;;;19.54;24.35;95062.09;4975174;28;20215;-66
2022/03/24 10:24:18;;;;;;;22.08;6.82;;;;;;;18.83;23.46;95054.69;4993222;23;20235;-62
2022/03/24 10:27:00;;;;;;;9.55;5.68;;;;;;;18.45;23.62;95058.91;4994757;28;20651;-64
2022/03/24 10:29:27;;;;;;;8.85;5.63;;;;;;;18.15;23.56;94998.69;4994921;28;20216;-63
2022/03/24 10:31:55;;;;;;;11.95;5.90;;;;;;;18.51;23.74;95047.94;4994879;28;20622;-64
2022/03/24 10:34:51;;;;;;;9.40;5.97;;;;;;;18.63;23.64;95035.47;4994977;28;20180;-63
2022/03/24 10:37:19;;;;;;;13.75;5.50;;;;;;;19.13;23.07;95022.91;4994100;28;20172;-59
2022/03/24 10:39:57;;;;;;;12.75;5.90;;;;;;;19.05;23.21;95010.88;4994549;28;20204;-64
2022/03/24 10:42:26;;;;;;;8.73;5.15;;;;;;;20.11;23.35;95008.94;4994131;28;20274;-62
2022/03/24 10:45:12;;;;;;;15.75;5.60;;;;;;;19.99;22.19;95000.88;4994090;28;20230;-62
2022/03/24 10:47:50;;;;;;;13.63;5.63;;;;;;;20.40;22.40;94998.59;4994434;28;20595;-66
2022/03/24 10:50:20;;;;;;;8.65;5.20;;;;;;;19.18;22.45;94989.69;4994382;28;20202;-65
2022/03/24 10:52:45;;;;;;;10.48;5.75;;;;;;;18.38;22.91;94985.88;4994273;28;20226;-66
2022/03/24 10:55:12;;;;;;;10.75;6.15;;;;;;;18.36;23.13;94988.59;4994344;28;20192;-65
2022/03/24 10:57:39;;;;;;;11.07;6.18;;;;;;;18.98;22.13;94978.25;4994277;28;20258;-61
2022/03/24 11:00:06;;;;;;;7.35;4.93;;;;;;;18.58;23.02;94981.09;4993555;28;20204;-66
2022/03/24 11:02:33;;;;;;;10.32;5.70;;;;;;;18.58;22.93;94975.97;4976273;28;20187;-63
2022/03/24 11:05:12;;;;;;;10.32;5.05;;;;;;;18.84;22.83;94960.97;4993762;28;20204;-62
2022/03/24 11:07:38;;;;;;;8.45;5.60;;;;;;;19.10;22.47;94964.78;4993994;28;20525;-64
2022/03/24 11:10:13;;;;;;;9.25;6.05;;;;;;;18.88;22.95;94957.06;4993736;28;20307;-63
2022/03/24 11:12:40;;;;;;;7.93;5.55;;;;;;;19.65;22.77;94955.91;4993377;28;20230;-59
2022/03/24 11:15:07;;;;;;;8.32;5.32;;;;;;;20.33;21.42;94947.84;4993554;28;20191;-63
2022/03/24 11:17:35;;;;;;;13.60;6.35;;;;;;;20.57;21.81;94942.34;4993375;28;20196;-64
2022/03/24 11:20:09;;;;;;;9.63;4.95;;;;;;;20.26;20.83;94952.16;4993860;28;20206;-65
2022/03/24 11:22:47;;;;;;;10.57;5.38;;;;;;;19.87;21.30;94940.34;4976039;28;20234;-62
2022/03/24 11:25:12;;;;;;;9.65;5.55;;;;;;;19.61;21.71;94929.69;4993453;28;20261;-59
2022/03/24 11:27:39;;;;;;;8.40;5.40;;;;;;;19.55;21.66;94920.06;4975937;28;20188;-61
2022/03/24 11:30:08;;;;;;;12.90;5.88;;;;;;;19.29;21.45;94920.44;4960042;28;20273;-61
2022/03/24 11:32:37;;;;;;;8.55;5.43;;;;;;;19.19;21.79;94919.09;4993380;28;20215;-61
2022/03/24 11:35:05;;;;;;;8.23;5.47;;;;;;;19.70;21.68;94892.47;4993229;28;20282;-63